EGGP/LPL METAR and TAF weather

Enter ICAO airport designator
Station Type Date Time Source
EGGP METAR 2019/02/23 22:50 UTC NOAA

EGGP 232250Z VRB01KT 8000 NSC 08/06 Q1034


Station Type Date Time Source
EGGP Decoded METAR 2019/02/23 22:50 UTC NOAA

Liverpool Airport , United Kingdom (EGGP) 53-20N 002-51W
Feb 23, 2019 - 05:50 PM EST / 2019.02.23 2250 UTC
Wind: Variable at 1 MPH (1 KT):0
Visibility: 4 mile(s):0
Temperature: 46 F (8 C)
Dew Point: 42 F (6 C)
Relative Humidity: 87%
Pressure (altimeter): 30.53 in. Hg (1034 hPa)
ob: EGGP 232250Z VRB01KT 8000 NSC 08/06 Q1034
cycle: 23

Station Type Date Time Source
EGGP TAF 2019/02/23 19:27 UTC NOAA

TAF
AMD TAF
AMD EGGP 231924Z 2319/2418 16008KT 8000 FEW045
TEMPO 2321/2411 4000 BR PROB30
TEMPO 2323/2410 0200 FG BKN000
BECMG 2409/2412 9999
BECMG 2415/2418 7000


Example: see airport list